createdAt,value
2023-03-20T00:08:00.572Z,100550.86
2023-03-20T00:23:04.430Z,100546.19
2023-03-20T00:38:06.740Z,100541.10
2023-03-20T00:53:25.035Z,100535.01
2023-03-20T01:08:27.593Z,100528.64
2023-03-20T01:23:30.093Z,100524.83
2023-03-20T01:38:32.447Z,100514.73
2023-03-20T01:53:34.887Z,100517.25
2023-03-20T02:08:46.790Z,100509.39
2023-03-20T02:24:45.809Z,100504.51
2023-03-20T02:40:06.587Z,100499.45
2023-03-20T02:55:51.831Z,100501.82
2023-03-20T03:11:05.671Z,100504.66
2023-03-20T03:26:14.962Z,100496.65
2023-03-20T03:41:52.494Z,100498.67
2023-03-20T03:56:56.888Z,100488.05
2023-03-20T04:11:59.288Z,100489.55
2023-03-20T04:27:01.659Z,100489.61
2023-03-20T04:42:05.661Z,100495.40
2023-03-20T04:57:22.877Z,100492.02
2023-03-20T05:12:26.628Z,100499.81
2023-03-20T05:27:29.038Z,100512.40
2023-03-20T05:42:46.227Z,100513.01
2023-03-20T06:03:08.600Z,100523.00
2023-03-20T06:18:11.043Z,100527.39
2023-03-20T06:33:13.581Z,100535.36
2023-03-20T06:48:30.799Z,100543.22
2023-03-20T07:03:33.665Z,100546.53
2023-03-20T07:18:37.155Z,100544.50
2023-03-20T07:33:39.809Z,100553.04
2023-03-20T07:48:42.274Z,100563.45
2023-03-20T08:03:44.820Z,100560.71
2023-03-20T08:18:47.452Z,100558.96
2023-03-20T08:34:04.743Z,100559.36
2023-03-20T08:49:22.033Z,100563.83
2023-03-20T09:04:25.234Z,100568.25
2023-03-20T09:19:28.832Z,100578.77
2023-03-20T09:34:31.765Z,100567.98
2023-03-20T09:49:56.698Z,100572.59
2023-03-20T10:04:59.764Z,100570.14
2023-03-20T10:20:42.736Z,100565.66
2023-03-20T10:36:39.572Z,100562.92
2023-03-20T10:51:51.649Z,100565.42
2023-03-20T11:07:07.256Z,100565.58
2023-03-20T11:22:25.878Z,100550.34
2023-03-20T11:37:34.593Z,100546.84
2023-03-20T11:52:40.050Z,100534.98
2023-03-20T12:08:29.799Z,100535.71
2023-03-20T12:23:38.965Z,100521.29
2023-03-20T12:38:43.888Z,100509.87
2023-03-20T12:54:25.079Z,100480.53
2023-03-20T13:09:57.944Z,100477.40
2023-03-20T13:25:28.073Z,100467.73
2023-03-20T13:40:39.886Z,100452.11
2023-03-20T13:56:08.655Z,100444.23
2023-03-20T14:11:34.452Z,100441.41
2023-03-20T14:26:41.270Z,100440.56
2023-03-20T14:42:07.140Z,100435.13
2023-03-20T14:57:30.848Z,100441.08
2023-03-20T15:12:37.027Z,100441.91
2023-03-20T15:27:40.349Z,100447.31
2023-03-20T15:42:43.827Z,100452.02
2023-03-20T15:57:49.823Z,100473.28
2023-03-20T16:12:56.725Z,100495.36
2023-03-20T16:27:59.676Z,100506.50
2023-03-20T16:43:20.257Z,100521.63
2023-03-20T16:58:28.549Z,100520.15
2023-03-20T17:13:31.187Z,100529.13
2023-03-20T17:28:36.700Z,100539.38
2023-03-20T17:43:56.256Z,100548.45
2023-03-20T17:59:00.906Z,100550.52
2023-03-20T18:14:07.068Z,100541.96
2023-03-20T18:29:12.416Z,100543.92
2023-03-20T18:44:16.105Z,100554.38
2023-03-20T18:59:26.550Z,100554.29
2023-03-20T19:14:30.064Z,100559.59
2023-03-20T19:29:33.103Z,100572.07
2023-03-20T19:44:36.536Z,100571.39
2023-03-20T19:59:43.884Z,100573.16
2023-03-20T20:14:47.141Z,100568.70
2023-03-20T20:29:52.666Z,100563.31
2023-03-20T20:44:55.532Z,100556.36
2023-03-20T21:00:01.567Z,100559.39
2023-03-20T21:15:06.256Z,100558.55
2023-03-20T21:30:10.736Z,100556.33
2023-03-20T21:46:06.964Z,100558.13
2023-03-20T22:32:33.340Z,100552.98
2023-03-20T22:47:01.839Z,100554.41
2023-03-20T23:02:05.997Z,100551.23
2023-03-20T23:17:09.147Z,100547.44
2023-03-20T23:32:12.143Z,100551.87
2023-03-20T23:47:20.412Z,100548.44
